Latest Weather Observations for Armidale Airport

IDN60801

Issued at 9:32 am EST Thursday 28 May 2015 (issued every 30 minutes, with the page automatically refreshed every 10 minutes)

About weather observations | Map of weather stations | Latest weather observations for NSW | Other Formats
Station Details ID: 056238 Name: ARMIDALE AIRPORT AWS Lat: -30.53 Lon: 151.62 Height: 1079.0 m
Data from the previous 72 hours. | See also: Recent months for locations in New South Wales
Date/Time
EST
Temp
°C
App
Temp
°C
Dew
Point
Rel
Hum
%
Delta-T
°C
Wind Press
QNH
hPa
Press
MSL
hPa
Rain
since 9 am
mm
Dir
 
Spd
km/h
Gust
km/h
Spd
kts
Gust
kts
28/09:30am 11.6 10.9 6.9 73 2.4 CALM 0 6 0 3 1026.4 1025.1 0.0
28/09:00am 9.9 7.6 7.3 84 1.3 SW 9 11 5 6 1026.5 1025.2 0.8
28/08:30am 10.0 8.2 7.8 86 1.1 W 7 7 4 4 1026.4 1025.1 0.6
28/08:00am 8.9 8.6 8.6 98 0.2 CALM 0 0 0 0 1026.0 1024.8 0.6
28/07:30am 8.1 7.6 7.8 98 0.2 CALM 0 4 0 2 1025.7 1024.4 0.6
28/07:00am 7.8 6.5 7.5 98 0.1 W 4 7 2 4 1025.7 1024.4 0.2
28/06:30am 6.6 4.6 6.3 98 0.1 W 6 7 3 4 1025.5 1024.2 0.0
28/06:00am 6.1 5.1 5.8 98 0.1 CALM 0 4 0 2 1025.0 1023.8 0.0
28/05:30am 5.5 2.3 5.2 98 0.1 NE 11 11 6 6 1024.2 1023.0 0.0
28/05:00am 5.7 3.0 5.4 98 0.1 ENE 9 9 5 5 1024.4 1023.1 0.0
28/04:30am 6.4 4.2 6.1 98 0.1 ESE 7 9 4 5 1024.1 1022.8 0.0
28/04:00am 6.2 3.9 5.9 98 0.1 E 7 9 4 5 1024.2 1023.0 0.0
28/03:30am 5.9 3.6 5.6 98 0.1 E 7 9 4 5 1024.5 1023.2 0.0
28/03:00am 6.3 4.2 6.0 98 0.1 SE 6 7 3 4 1024.8 1023.5 0.0
28/02:30am 7.0 4.8 6.3 95 0.3 NE 7 7 4 4 1024.9 1023.6 0.0
28/02:00am 7.3 4.4 6.6 95 0.3 NNE 11 13 6 7 1024.7 1023.4 0.0
28/01:30am 7.3 4.9 7.0 98 0.1 NNE 9 11 5 6 1025.0 1023.8 0.0
28/01:00am 6.3 4.1 6.0 98 0.1 ENE 7 9 4 5 1025.2 1024.0 0.0
28/12:30am 5.7 3.0 5.4 98 0.1 NE 9 9 5 5 1024.9 1023.6 0.0
28/12:00am 6.4 3.8 6.1 98 0.1 NE 9 11 5 6 1025.2 1024.0 0.0
 
Date/Time
EST
Temp
°C
App
Temp
°C
Dew
Point
Rel
Hum
%
Delta-T
°C
Wind Press
QNH
hPa
Press
MSL
hPa
Rain
since 9 am
mm
Dir
 
Spd
km/h
Gust
km/h
Spd
kts
Gust
kts
27/11:30pm 6.1 3.8 5.8 98 0.1 NE 7 9 4 5 1025.5 1024.2 0.0
27/11:00pm 6.3 4.2 6.0 98 0.1 N 6 7 3 4 1025.6 1024.3 0.0
27/10:30pm 4.7 1.8 4.4 98 0.1 NE 9 11 5 6 1025.2 1024.0 0.0
27/10:00pm 6.5 5.5 5.8 95 0.3 CALM 0 0 0 0 1025.5 1024.2 0.0
27/09:30pm 6.3 5.2 4.9 91 0.7 CALM 0 0 0 0 1025.5 1024.2 0.0
27/09:00pm 6.5 5.1 5.3 92 0.6 WSW 2 6 1 3 1025.4 1024.1 0.0
27/08:30pm 6.6 4.2 5.4 92 0.6 W 7 9 4 5 1025.6 1024.3 0.0
27/08:00pm 7.2 5.8 5.5 89 0.8 SW 2 6 1 3 1025.4 1024.1 0.0
27/07:30pm 8.4 5.6 5.2 80 1.5 SSW 9 9 5 5 1025.1 1023.9 0.0
27/07:00pm 9.0 6.3 5.6 79 1.6 SSW 9 11 5 6 1025.1 1023.9 0.0
27/06:30pm 9.5 6.1 5.7 77 1.8 SW 13 13 7 7 1025.0 1023.8 0.0
27/06:00pm 10.3 7.6 5.7 73 2.2 SW 9 13 5 7 1024.7 1023.4 0.0
27/05:30pm 10.5 7.6 4.6 67 2.8 W 9 11 5 6 1024.5 1023.2 0.0
27/05:00pm 11.6 8.7 4.8 63 3.3 W 9 11 5 6 1024.2 1023.0 0.0
27/04:30pm 12.5 9.4 5.4 62 3.5 WSW 11 13 6 7 1024.1 1022.8 0.0
27/04:00pm 13.0 9.4 4.9 58 4.0 W 13 15 7 8 1023.9 1022.6 0.0
27/03:30pm 14.3 10.3 5.1 54 4.6 W 15 20 8 11 1024.0 1022.7 0.0
27/03:00pm 14.9 10.2 3.1 45 5.6 W 17 22 9 12 1024.2 1023.0 0.0
27/02:30pm 15.1 9.7 2.3 42 6.0 W 20 30 11 16 1024.1 1022.8 0.0
27/02:00pm 14.8 9.9 2.0 42 6.0 W 17 22 9 12 1024.0 1022.7 0.0
27/01:30pm 14.7 9.1 0.2 37 6.5 WNW 19 28 10 15 1024.2 1023.0 0.0
27/01:00pm 14.6 8.4 -0.3 36 6.6 W 22 32 12 17 1024.6 1023.3 0.0
27/12:30pm 14.5 8.3 2.4 44 5.7 WNW 24 32 13 17 1025.0 1023.8 0.0
27/12:00pm 14.6 9.8 5.7 55 4.5 W 20 30 11 16 1025.2 1024.0 0.0
27/11:30am 14.2 9.6 5.6 56 4.3 WNW 19 26 10 14 1025.6 1024.3 0.0
27/11:00am 14.1 10.0 6.2 59 4.0 WNW 17 26 9 14 1026.0 1024.8 0.0
27/10:30am 13.5 9.7 5.7 59 3.9 WNW 15 20 8 11 1026.6 1025.3 0.0
27/10:00am 12.7 8.1 5.6 62 3.5 NW 19 26 10 14 1026.9 1025.7 0.0
27/09:30am 11.8 8.4 7.7 76 2.1 NW 15 22 8 12 1026.8 1025.6 0.0
27/09:00am 10.3 8.3 8.6 89 0.9 NNE 9 11 5 6 1026.8 1025.6 0.0
27/08:30am 9.6 8.6 9.0 96 0.3 N 4 9 2 5 1026.7 1025.5 0.0
27/08:02am 7.1 6.0 7.1 100 0.0 NNE 2 9 1 5 1026.6 1025.3 0.0
27/08:00am 7.0 6.3 6.9 99 0.0 CALM 0 4 0 2 1026.6 1025.3 0.0
27/07:30am 4.6 2.2 4.5 99 0.0 NE 6 7 3 4 1026.0 1024.8 0.0
27/07:08am 4.0 1.3 3.9 99 0.0 ENE 7 9 4 5 1025.6 1024.3 0.0
27/07:04am 4.1 1.6 4.0 99 0.0 NE 6 7 3 4 1025.6 1024.3 0.0
27/07:00am 3.5 1.3 3.4 99 0.0 ENE 4 7 2 4 1025.7 1024.4 0.0
27/06:48am 2.9 1.3 2.6 98 0.1 CALM 0 4 0 2 1025.8 1024.6 0.0
27/06:30am 4.2 2.5 4.1 99 0.0 WSW 2 6 1 3 1025.8 1024.6 0.0
27/06:00am 4.4 1.8 4.3 99 0.0 SW 7 9 4 5 1025.8 1024.6 0.0
27/05:30am 4.1 1.1 4.0 99 0.0 WSW 9 11 5 6 1025.4 1024.1 0.0
27/05:00am 4.0 2.3 3.9 99 0.0 NNE 2 6 1 3 1025.4 1024.1 0.0
27/04:59am 4.2 2.5 4.1 99 0.0 NNE 2 6 1 3 1025.4 1024.1 0.0
27/04:30am 3.6 1.1 3.5 99 0.0 NNE 6 7 3 4 1025.2 1024.0 0.0
27/04:17am 3.1 -0.5 3.0 99 0.0 NE 11 13 6 7 1025.0 1023.8 0.0
27/04:00am 3.6 0.1 3.3 98 0.1 ENE 11 13 6 7 1024.8 1023.5 0.0
27/03:30am 5.0 3.1 4.9 99 0.0 E 4 6 2 3 1025.7 1024.4 0.0
27/03:00am 4.2 1.7 3.9 98 0.1 SE 6 6 3 3 1025.8 1024.6 0.0
27/02:30am 4.9 3.7 4.8 99 0.0 CALM 0 6 0 3 1025.9 1024.7 0.0
27/02:00am 3.9 1.2 3.6 98 0.1 NE 7 9 4 5 1026.0 1024.8 0.0
27/01:30am 4.6 2.0 4.3 98 0.1 NNE 7 11 4 6 1026.1 1024.9 0.0
27/01:00am 5.3 1.7 5.0 98 0.1 NNE 13 15 7 8 1026.1 1024.9 0.0
27/12:30am 4.4 1.4 4.1 98 0.1 NE 9 11 5 6 1026.8 1025.6 0.0
27/12:00am 5.0 2.1 4.6 97 0.2 ENE 9 11 5 6 1027.0 1025.8 0.0
 
Date/Time
EST
Temp
°C
App
Temp
°C
Dew
Point
Rel
Hum
%
Delta-T
°C
Wind Press
QNH
hPa
Press
MSL
hPa
Rain
since 9 am
mm
Dir
 
Spd
km/h
Gust
km/h
Spd
kts
Gust
kts
26/11:30pm 5.6 3.3 4.6 93 0.5 ENE 6 11 3 6 1027.2 1026.0 0.0
26/11:00pm 6.2 3.7 4.8 91 0.6 S 7 9 4 5 1027.2 1026.0 0.0
26/10:30pm 6.9 5.1 5.2 89 0.8 SW 4 6 2 3 1027.1 1025.9 0.0
26/10:00pm 7.1 3.8 4.8 85 1.1 SW 11 11 6 6 1027.7 1026.5 0.0
26/09:30pm 6.9 4.4 4.9 87 0.9 WSW 7 9 4 5 1027.7 1026.5 0.0
26/09:00pm 7.9 5.2 5.5 85 1.1 W 9 9 5 5 1027.7 1026.5 0.0
26/08:30pm 7.9 4.8 5.7 86 1.1 WNW 11 11 6 6 1027.5 1026.3 0.0
26/08:00pm 8.1 5.8 4.9 80 1.5 NNE 6 7 3 4 1027.2 1026.0 0.0
26/07:30pm 9.0 5.7 4.8 75 2.0 SE 11 13 6 7 1026.9 1025.7 0.0
26/07:00pm 9.6 6.0 5.2 74 2.1 SE 13 15 7 8 1026.6 1025.3 0.0
26/06:30pm 9.9 7.2 5.7 75 2.1 SE 9 11 5 6 1026.8 1025.6 0.0
26/06:00pm 10.1 8.0 5.7 74 2.1 S 6 9 3 5 1027.0 1025.8 0.0
26/05:30pm 10.4 8.1 5.6 72 2.3 SSW 7 9 4 5 1027.0 1025.8 0.0
26/05:00pm 10.7 8.0 5.5 70 2.5 WSW 9 9 5 5 1027.1 1025.9 0.0
26/04:30pm 11.6 8.0 5.0 64 3.2 SSW 13 17 7 9 1026.9 1025.7 0.0
26/04:00pm 12.3 9.2 5.5 63 3.3 SW 11 15 6 8 1027.2 1026.0 0.0
26/03:30pm 12.7 9.6 5.4 61 3.6 WSW 11 15 6 8 1027.1 1025.9 0.0
26/03:00pm 12.9 9.0 5.3 60 3.7 WSW 15 20 8 11 1027.1 1025.9 0.0
26/02:30pm 13.5 9.4 4.6 55 4.4 WSW 15 19 8 10 1027.4 1026.1 0.0
26/02:00pm 13.7 9.8 5.3 57 4.2 WSW 15 20 8 11 1027.4 1026.1 0.0
26/01:30pm 13.7 8.9 4.8 55 4.4 W 19 26 10 14 1027.8 1026.6 0.0
26/01:00pm 13.4 9.6 5.8 60 3.8 WNW 15 22 8 12 1028.1 1026.9 0.0
26/12:30pm 13.8 9.4 4.9 55 4.4 W 17 24 9 13 1028.6 1027.4 0.0
26/12:00pm 13.4 9.1 5.3 58 4.0 W 17 20 9 11 1028.8 1027.6 0.0
26/11:30am 13.7 9.9 5.8 59 4.0 W 15 20 8 11 1029.0 1027.9 0.0
26/11:00am 13.3 9.0 5.2 58 4.0 WNW 17 26 9 14 1029.7 1028.5 0.0
26/10:30am 13.4 9.5 7.0 65 3.3 W 17 24 9 13 1030.0 1028.9 0.0
26/10:00am 12.8 9.4 5.7 62 3.5 WNW 13 17 7 9 1030.1 1029.0 0.0
26/09:30am 11.4 9.0 7.1 75 2.2 WNW 9 11 5 6 1030.5 1029.3 0.0
26/09:00am 11.0 9.0 7.1 77 2.0 NW 7 9 4 5 1030.4 1029.2 0.0
26/08:30am 9.7 9.0 8.6 93 0.6 NNE 2 6 1 3 1030.1 1029.0 0.0
26/08:00am 7.1 5.1 7.0 99 0.0 ENE 7 9 4 5 1030.0 1028.9 0.0
26/07:30am 5.4 2.6 5.3 99 0.0 NE 9 9 5 5 1029.7 1028.5 0.0
26/07:00am 3.6 0.1 3.5 99 0.0 NE 11 13 6 7 1029.6 1028.4 0.0
26/06:30am 3.5 0.7 3.4 99 0.0 NE 7 9 4 5 1029.5 1028.3 0.0
26/06:00am 3.9 0.8 3.6 98 0.1 NE 9 13 5 7 1029.4 1028.2 0.0
26/05:30am 4.6 2.1 4.5 99 0.0 ENE 7 7 4 4 1029.5 1028.3 0.0
26/05:00am 4.0 0.9 3.7 98 0.1 ENE 9 9 5 5 1029.5 1028.3 0.0
26/04:30am 4.3 1.7 4.2 99 0.0 NE 7 9 4 5 1029.6 1028.4 0.0
26/04:00am 3.5 0.0 3.4 99 0.0 NNE 11 13 6 7 1029.6 1028.4 0.0
26/03:30am 3.1 -0.1 3.0 99 0.0 NE 9 11 5 6 1029.6 1028.4 0.0
26/03:00am 3.1 -0.1 2.8 98 0.1 ENE 9 11 5 6 1029.9 1028.8 0.0
26/02:30am 3.0 -0.6 2.7 98 0.1 NE 11 11 6 6 1029.9 1028.8 0.0
26/02:00am 3.3 0.7 3.0 98 0.1 NE 6 9 3 5 1030.4 1029.2 0.0
26/01:30am 4.6 2.2 4.3 98 0.1 SSE 6 7 3 4 1030.4 1029.2 0.0
26/01:00am 5.4 3.2 5.1 98 0.1 S 6 7 3 4 1030.7 1029.6 0.0
26/12:30am 5.8 2.7 5.5 98 0.1 S 11 15 6 8 1030.9 1029.8 0.0
26/12:00am 5.4 2.5 4.4 93 0.5 SSW 9 13 5 7 1030.8 1029.7 0.0
 
Date/Time
EST
Temp
°C
App
Temp
°C
Dew
Point
Rel
Hum
%
Delta-T
°C
Wind Press
QNH
hPa
Press
MSL
hPa
Rain
since 9 am
mm
Dir
 
Spd
km/h
Gust
km/h
Spd
kts
Gust
kts
25/11:30pm 6.1 3.9 5.1 93 0.5 SE 6 9 3 5 1030.1 1029.0 0.0
25/11:00pm 6.0 3.7 4.6 91 0.6 ENE 6 9 3 5 1030.1 1029.0 0.0
25/10:30pm 7.1 4.9 5.4 89 0.8 SSW 6 6 3 3 1030.5 1029.3 0.0
25/10:00pm 7.2 6.1 5.0 86 1.0 CALM 0 0 0 0 1031.1 1030.0 0.0
25/09:30pm 7.0 4.8 5.3 89 0.8 NE 6 7 3 4 1031.2 1030.1 0.0
25/09:00pm 7.0 5.8 4.7 85 1.1 CALM 0 0 0 0 1031.2 1030.1 0.0
25/08:30pm 8.1 5.6 5.0 81 1.5 SSW 7 9 4 5 1031.6 1030.5 0.0
25/08:00pm 9.2 6.5 5.4 77 1.8 SSE 9 11 5 6 1031.4 1030.2 0.0
25/07:30pm 9.5 6.3 4.9 73 2.2 S 11 15 6 8 1031.1 1030.0 0.0
25/07:00pm 9.5 6.2 4.7 72 2.3 SSW 11 13 6 7 1031.5 1030.4 0.0
25/06:30pm 9.2 6.1 3.6 68 2.6 SSW 9 9 5 5 1030.6 1029.4 0.0
25/06:00pm 9.7 6.6 1.6 57 3.6 SW 7 7 4 4 1030.1 1029.0 0.0
25/05:30pm 9.6 6.7 1.3 56 3.7 WNW 6 6 3 3 1030.0 1028.9 0.0
25/05:00pm 10.5 7.4 1.3 53 4.1 WNW 7 9 4 5 1029.9 1028.8 0.0
25/04:30pm 13.0 9.7 2.5 49 4.9 WNW 9 9 5 5 1029.9 1028.8 0.0
25/04:00pm 12.9 9.2 2.5 49 4.8 W 11 15 6 8 1029.6 1028.4 0.0
25/03:30pm 14.1 9.9 1.7 43 5.7 WSW 13 15 7 8 1030.0 1028.9 0.0
25/03:00pm 13.7 9.3 2.6 47 5.2 WSW 15 19 8 10 1030.0 1028.9 0.0
25/02:30pm 14.1 9.6 4.1 51 4.9 WSW 17 22 9 12 1030.4 1029.2 0.0
25/02:00pm 14.4 11.6 3.2 47 5.3 WSW 7 15 4 8 1030.1 1029.0 0.0
25/01:30pm 14.8 11.8 2.0 42 6.0 NW 7 13 4 7 1030.5 1029.3 0.0
25/01:00pm 14.8 11.8 4.2 49 5.2 N 9 19 5 10 1030.6 1029.4 0.0
25/12:30pm 14.4 11.0 4.1 50 5.0 W 11 17 6 9 1031.0 1029.9 0.0
25/12:00pm 13.9 10.7 3.1 48 5.1 N 9 24 5 13 1031.5 1030.4 0.0
25/11:30am 13.1 9.7 1.8 46 5.2 NNE 9 13 5 7 1032.2 1031.1 0.0
25/11:00am 13.0 10.0 4.2 55 4.2 E 9 11 5 6 1032.8 1031.7 0.0
25/10:30am 12.4 10.3 5.6 63 3.4 ESE 6 7 3 4 1033.0 1031.9 0.0
25/10:00am 10.7 9.8 6.1 73 2.3 CALM 0 0 0 0 1033.2 1032.2 0.0

Other Formats:

Comma delimited format used in spreadsheet applications
http://www.bom.gov.au/fwo/IDN60801/IDN60801.95773.axf

JavaScript Object Notation format (JSON) in row-major order
http://www.bom.gov.au/fwo/IDN60801/IDN60801.95773.json